sensor_id;sensor_type;location;lat;lon;timestamp;P1;durP1;ratioP1;P2;durP2;ratioP2
19585;SDS011;9939;49.246;9.106;2022-10-31T00:01:21;16.67;;;7.27;;
19585;SDS011;9939;49.246;9.106;2022-10-31T00:03:55;16.73;;;7.50;;
19585;SDS011;9939;49.246;9.106;2022-10-31T00:06:22;15.00;;;7.93;;
19585;SDS011;9939;49.246;9.106;2022-10-31T00:08:54;22.77;;;8.73;;
19585;SDS011;9939;49.246;9.106;2022-10-31T00:11:23;17.83;;;7.80;;
19585;SDS011;9939;49.246;9.106;2022-10-31T00:13:50;16.40;;;8.47;;
19585;SDS011;9939;49.246;9.106;2022-10-31T00:16:18;14.43;;;7.73;;
19585;SDS011;9939;49.246;9.106;2022-10-31T00:18:54;16.80;;;8.40;;
19585;SDS011;9939;49.246;9.106;2022-10-31T00:21:23;12.90;;;7.87;;
19585;SDS011;9939;49.246;9.106;2022-10-31T00:23:50;14.13;;;7.50;;
19585;SDS011;9939;49.246;9.106;2022-10-31T00:26:17;13.90;;;8.10;;
19585;SDS011;9939;49.246;9.106;2022-10-31T00:28:46;13.33;;;7.57;;
19585;SDS011;9939;49.246;9.106;2022-10-31T00:31:13;13.50;;;7.97;;
19585;SDS011;9939;49.246;9.106;2022-10-31T00:33:41;13.33;;;7.53;;
19585;SDS011;9939;49.246;9.106;2022-10-31T00:36:10;11.53;;;6.80;;
19585;SDS011;9939;49.246;9.106;2022-10-31T00:38:42;11.23;;;7.83;;
19585;SDS011;9939;49.246;9.106;2022-10-31T00:41:11;14.73;;;7.37;;
19585;SDS011;9939;49.246;9.106;2022-10-31T00:43:40;11.27;;;7.63;;
19585;SDS011;9939;49.246;9.106;2022-10-31T00:46:07;13.80;;;7.70;;
19585;SDS011;9939;49.246;9.106;2022-10-31T00:48:35;11.13;;;6.67;;
19585;SDS011;9939;49.246;9.106;2022-10-31T00:51:02;13.83;;;7.43;;
19585;SDS011;9939;49.246;9.106;2022-10-31T00:53:29;14.00;;;7.60;;
19585;SDS011;9939;49.246;9.106;2022-10-31T00:55:56;10.47;;;7.07;;
19585;SDS011;9939;49.246;9.106;2022-10-31T00:58:23;12.90;;;6.60;;
19585;SDS011;9939;49.246;9.106;2022-10-31T01:00:51;15.37;;;6.73;;
19585;SDS011;9939;49.246;9.106;2022-10-31T01:03:22;10.87;;;6.80;;
19585;SDS011;9939;49.246;9.106;2022-10-31T01:08:35;12.67;;;7.17;;
19585;SDS011;9939;49.246;9.106;2022-10-31T01:11:07;14.37;;;7.13;;
19585;SDS011;9939;49.246;9.106;2022-10-31T01:13:45;15.93;;;7.17;;
19585;SDS011;9939;49.246;9.106;2022-10-31T01:16:17;18.50;;;7.50;;
19585;SDS011;9939;49.246;9.106;2022-10-31T01:18:46;15.87;;;7.50;;
19585;SDS011;9939;49.246;9.106;2022-10-31T01:21:14;16.27;;;7.67;;
19585;SDS011;9939;49.246;9.106;2022-10-31T01:23:43;18.83;;;7.57;;
19585;SDS011;9939;49.246;9.106;2022-10-31T01:26:13;16.13;;;7.67;;
19585;SDS011;9939;49.246;9.106;2022-10-31T01:31:17;21.70;;;7.87;;
19585;SDS011;9939;49.246;9.106;2022-10-31T01:33:46;21.60;;;8.33;;
19585;SDS011;9939;49.246;9.106;2022-10-31T01:36:18;18.10;;;7.90;;
19585;SDS011;9939;49.246;9.106;2022-10-31T01:38:50;19.87;;;7.83;;
19585;SDS011;9939;49.246;9.106;2022-10-31T01:41:20;14.27;;;7.80;;
19585;SDS011;9939;49.246;9.106;2022-10-31T01:46:31;17.00;;;7.13;;
19585;SDS011;9939;49.246;9.106;2022-10-31T01:49:03;12.70;;;6.97;;
19585;SDS011;9939;49.246;9.106;2022-10-31T01:51:36;16.13;;;7.23;;
19585;SDS011;9939;49.246;9.106;2022-10-31T01:54:09;14.70;;;7.43;;
19585;SDS011;9939;49.246;9.106;2022-10-31T01:56:39;15.37;;;7.33;;
19585;SDS011;9939;49.246;9.106;2022-10-31T01:59:12;15.50;;;7.40;;
19585;SDS011;9939;49.246;9.106;2022-10-31T02:01:43;14.80;;;7.07;;
19585;SDS011;9939;49.246;9.106;2022-10-31T02:04:10;13.37;;;6.97;;
19585;SDS011;9939;49.246;9.106;2022-10-31T02:06:38;13.03;;;7.13;;
19585;SDS011;9939;49.246;9.106;2022-10-31T02:09:12;13.47;;;7.10;;
19585;SDS011;9939;49.246;9.106;2022-10-31T02:11:40;14.93;;;6.50;;
19585;SDS011;9939;49.246;9.106;2022-10-31T02:14:10;11.13;;;6.93;;
19585;SDS011;9939;49.246;9.106;2022-10-31T02:16:37;11.83;;;6.53;;
19585;SDS011;9939;49.246;9.106;2022-10-31T02:19:05;12.13;;;7.20;;
19585;SDS011;9939;49.246;9.106;2022-10-31T02:21:51;17.83;;;8.53;;
19585;SDS011;9939;49.246;9.106;2022-10-31T02:33:09;12.87;;;7.10;;
19585;SDS011;9939;49.246;9.106;2022-10-31T02:38:38;15.00;;;7.90;;
19585;SDS011;9939;49.246;9.106;2022-10-31T02:44:12;16.43;;;7.20;;
19585;SDS011;9939;49.246;9.106;2022-10-31T02:47:06;16.17;;;6.80;;
19585;SDS011;9939;49.246;9.106;2022-10-31T02:49:39;12.80;;;6.60;;
19585;SDS011;9939;49.246;9.106;2022-10-31T02:54:45;11.73;;;5.90;;
19585;SDS011;9939;49.246;9.106;2022-10-31T02:57:14;10.03;;;5.87;;
19585;SDS011;9939;49.246;9.106;2022-10-31T02:59:46;13.20;;;5.73;;
19585;SDS011;9939;49.246;9.106;2022-10-31T03:05:11;9.13;;;5.90;;
19585;SDS011;9939;49.246;9.106;2022-10-31T03:10:59;11.23;;;5.87;;
19585;SDS011;9939;49.246;9.106;2022-10-31T03:16:23;8.63;;;5.10;;
19585;SDS011;9939;49.246;9.106;2022-10-31T03:19:33;9.87;;;5.23;;
19585;SDS011;9939;49.246;9.106;2022-10-31T03:22:14;14.23;;;6.20;;
19585;SDS011;9939;49.246;9.106;2022-10-31T03:24:52;22.43;;;7.13;;
19585;SDS011;9939;49.246;9.106;2022-10-31T03:27:22;37.57;;;8.53;;
19585;SDS011;9939;49.246;9.106;2022-10-31T03:29:54;69.67;;;9.13;;
19585;SDS011;9939;49.246;9.106;2022-10-31T03:35:23;101.17;;;10.40;;
19585;SDS011;9939;49.246;9.106;2022-10-31T03:37:52;52.40;;;9.37;;
19585;SDS011;9939;49.246;9.106;2022-10-31T03:40:21;83.60;;;9.90;;
19585;SDS011;9939;49.246;9.106;2022-10-31T03:42:54;61.50;;;9.13;;
19585;SDS011;9939;49.246;9.106;2022-10-31T03:45:28;12.70;;;7.47;;
19585;SDS011;9939;49.246;9.106;2022-10-31T03:47:57;18.33;;;7.33;;
19585;SDS011;9939;49.246;9.106;2022-10-31T03:50:28;15.47;;;7.20;;
19585;SDS011;9939;49.246;9.106;2022-10-31T03:53:04;27.43;;;7.70;;
19585;SDS011;9939;49.246;9.106;2022-10-31T03:55:39;17.47;;;7.70;;
19585;SDS011;9939;49.246;9.106;2022-10-31T03:58:11;21.17;;;6.77;;
19585;SDS011;9939;49.246;9.106;2022-10-31T04:00:48;21.93;;;6.30;;
19585;SDS011;9939;49.246;9.106;2022-10-31T04:03:24;16.50;;;6.57;;
19585;SDS011;9939;49.246;9.106;2022-10-31T04:05:58;25.60;;;7.30;;
19585;SDS011;9939;49.246;9.106;2022-10-31T04:08:29;14.70;;;6.53;;
19585;SDS011;9939;49.246;9.106;2022-10-31T04:10:59;26.93;;;7.27;;
19585;SDS011;9939;49.246;9.106;2022-10-31T04:13:31;18.77;;;7.10;;
19585;SDS011;9939;49.246;9.106;2022-10-31T04:16:12;19.17;;;7.57;;
19585;SDS011;9939;49.246;9.106;2022-10-31T04:18:43;18.87;;;7.80;;
19585;SDS011;9939;49.246;9.106;2022-10-31T04:21:10;24.53;;;8.23;;
19585;SDS011;9939;49.246;9.106;2022-10-31T04:23:37;22.87;;;8.03;;
19585;SDS011;9939;49.246;9.106;2022-10-31T04:26:15;21.00;;;7.40;;
19585;SDS011;9939;49.246;9.106;2022-10-31T04:28:43;34.20;;;7.03;;
19585;SDS011;9939;49.246;9.106;2022-10-31T04:31:11;32.57;;;7.63;;
19585;SDS011;9939;49.246;9.106;2022-10-31T04:33:39;29.60;;;9.10;;
19585;SDS011;9939;49.246;9.106;2022-10-31T04:36:07;21.47;;;7.60;;
19585;SDS011;9939;49.246;9.106;2022-10-31T04:38:34;46.70;;;7.90;;
19585;SDS011;9939;49.246;9.106;2022-10-31T04:41:06;31.43;;;6.73;;
19585;SDS011;9939;49.246;9.106;2022-10-31T04:43:51;13.90;;;6.10;;
19585;SDS011;9939;49.246;9.106;2022-10-31T04:46:18;16.60;;;5.40;;
19585;SDS011;9939;49.246;9.106;2022-10-31T04:48:46;23.23;;;6.07;;
19585;SDS011;9939;49.246;9.106;2022-10-31T04:51:13;12.50;;;5.60;;
19585;SDS011;9939;49.246;9.106;2022-10-31T04:53:41;9.23;;;5.47;;
19585;SDS011;9939;49.246;9.106;2022-10-31T04:56:37;9.93;;;4.70;;
19585;SDS011;9939;49.246;9.106;2022-10-31T04:59:10;9.70;;;5.57;;
19585;SDS011;9939;49.246;9.106;2022-10-31T05:01:48;13.87;;;5.37;;
19585;SDS011;9939;49.246;9.106;2022-10-31T05:04:20;15.70;;;6.67;;
19585;SDS011;9939;49.246;9.106;2022-10-31T05:06:47;32.23;;;5.97;;
19585;SDS011;9939;49.246;9.106;2022-10-31T05:09:14;19.17;;;5.73;;
19585;SDS011;9939;49.246;9.106;2022-10-31T05:11:42;23.17;;;6.20;;
19585;SDS011;9939;49.246;9.106;2022-10-31T05:14:31;29.97;;;6.50;;
19585;SDS011;9939;49.246;9.106;2022-10-31T05:17:18;13.63;;;6.63;;
19585;SDS011;9939;49.246;9.106;2022-10-31T05:20:05;12.33;;;5.77;;
19585;SDS011;9939;49.246;9.106;2022-10-31T05:22:59;11.70;;;5.53;;
19585;SDS011;9939;49.246;9.106;2022-10-31T05:25:27;10.60;;;5.70;;
19585;SDS011;9939;49.246;9.106;2022-10-31T05:27:55;15.73;;;5.90;;
19585;SDS011;9939;49.246;9.106;2022-10-31T05:30:27;29.07;;;6.80;;
19585;SDS011;9939;49.246;9.106;2022-10-31T05:32:57;45.07;;;7.03;;
19585;SDS011;9939;49.246;9.106;2022-10-31T05:35:43;10.70;;;5.63;;
19585;SDS011;9939;49.246;9.106;2022-10-31T05:38:28;32.23;;;6.97;;
19585;SDS011;9939;49.246;9.106;2022-10-31T05:41:01;29.20;;;6.60;;
19585;SDS011;9939;49.246;9.106;2022-10-31T05:43:31;26.13;;;6.43;;
19585;SDS011;9939;49.246;9.106;2022-10-31T05:46:00;22.57;;;5.97;;
19585;SDS011;9939;49.246;9.106;2022-10-31T05:48:50;18.67;;;5.93;;
19585;SDS011;9939;49.246;9.106;2022-10-31T05:51:36;16.53;;;5.83;;
19585;SDS011;9939;49.246;9.106;2022-10-31T05:54:03;21.97;;;6.17;;
19585;SDS011;9939;49.246;9.106;2022-10-31T05:56:31;19.70;;;6.47;;
19585;SDS011;9939;49.246;9.106;2022-10-31T05:58:59;26.47;;;6.70;;
19585;SDS011;9939;49.246;9.106;2022-10-31T06:01:26;49.00;;;7.30;;
19585;SDS011;9939;49.246;9.106;2022-10-31T06:03:54;21.27;;;6.37;;
19585;SDS011;9939;49.246;9.106;2022-10-31T06:06:22;20.47;;;6.93;;
19585;SDS011;9939;49.246;9.106;2022-10-31T06:08:49;45.47;;;9.90;;
19585;SDS011;9939;49.246;9.106;2022-10-31T06:11:19;89.63;;;10.77;;
19585;SDS011;9939;49.246;9.106;2022-10-31T06:14:12;105.03;;;10.77;;
19585;SDS011;9939;49.246;9.106;2022-10-31T06:16:53;67.87;;;10.33;;
19585;SDS011;9939;49.246;9.106;2022-10-31T06:19:40;42.23;;;8.60;;
19585;SDS011;9939;49.246;9.106;2022-10-31T06:22:09;51.07;;;8.83;;
19585;SDS011;9939;49.246;9.106;2022-10-31T06:24:38;60.43;;;8.90;;
19585;SDS011;9939;49.246;9.106;2022-10-31T06:27:19;23.37;;;7.43;;
19585;SDS011;9939;49.246;9.106;2022-10-31T06:29:47;18.33;;;7.80;;
19585;SDS011;9939;49.246;9.106;2022-10-31T06:32:40;35.53;;;8.60;;
19585;SDS011;9939;49.246;9.106;2022-10-31T06:35:08;18.77;;;8.37;;
19585;SDS011;9939;49.246;9.106;2022-10-31T06:37:36;25.77;;;8.03;;
19585;SDS011;9939;49.246;9.106;2022-10-31T06:40:20;29.30;;;8.07;;
19585;SDS011;9939;49.246;9.106;2022-10-31T06:43:07;13.37;;;7.07;;
19585;SDS011;9939;49.246;9.106;2022-10-31T06:45:34;16.40;;;6.70;;
19585;SDS011;9939;49.246;9.106;2022-10-31T06:48:21;9.87;;;5.87;;
19585;SDS011;9939;49.246;9.106;2022-10-31T06:51:08;12.50;;;6.10;;
19585;SDS011;9939;49.246;9.106;2022-10-31T06:53:36;9.40;;;6.00;;
19585;SDS011;9939;49.246;9.106;2022-10-31T06:56:05;10.70;;;6.23;;
19585;SDS011;9939;49.246;9.106;2022-10-31T06:58:38;11.50;;;6.03;;
19585;SDS011;9939;49.246;9.106;2022-10-31T07:01:07;14.73;;;5.57;;
19585;SDS011;9939;49.246;9.106;2022-10-31T07:03:35;9.03;;;4.93;;
19585;SDS011;9939;49.246;9.106;2022-10-31T07:06:02;8.47;;;5.10;;
19585;SDS011;9939;49.246;9.106;2022-10-31T07:08:30;9.23;;;5.03;;
19585;SDS011;9939;49.246;9.106;2022-10-31T07:10:57;9.30;;;5.33;;
19585;SDS011;9939;49.246;9.106;2022-10-31T07:13:26;8.73;;;4.97;;
19585;SDS011;9939;49.246;9.106;2022-10-31T07:16:03;9.60;;;5.10;;
19585;SDS011;9939;49.246;9.106;2022-10-31T07:18:34;9.50;;;5.43;;
19585;SDS011;9939;49.246;9.106;2022-10-31T07:21:01;9.00;;;5.30;;
19585;SDS011;9939;49.246;9.106;2022-10-31T07:23:29;9.23;;;6.23;;
19585;SDS011;9939;49.246;9.106;2022-10-31T07:26:16;10.87;;;6.33;;
19585;SDS011;9939;49.246;9.106;2022-10-31T07:28:46;11.07;;;6.80;;
19585;SDS011;9939;49.246;9.106;2022-10-31T07:31:17;11.70;;;5.97;;
19585;SDS011;9939;49.246;9.106;2022-10-31T07:33:44;13.70;;;6.60;;
19585;SDS011;9939;49.246;9.106;2022-10-31T07:36:26;12.57;;;5.97;;
19585;SDS011;9939;49.246;9.106;2022-10-31T07:38:58;11.07;;;5.73;;
19585;SDS011;9939;49.246;9.106;2022-10-31T07:41:25;11.33;;;5.87;;
19585;SDS011;9939;49.246;9.106;2022-10-31T07:43:53;12.80;;;6.13;;
19585;SDS011;9939;49.246;9.106;2022-10-31T07:46:43;11.60;;;6.47;;
19585;SDS011;9939;49.246;9.106;2022-10-31T07:49:36;11.83;;;6.33;;
19585;SDS011;9939;49.246;9.106;2022-10-31T07:52:08;16.93;;;8.40;;
19585;SDS011;9939;49.246;9.106;2022-10-31T07:54:54;19.37;;;7.67;;
19585;SDS011;9939;49.246;9.106;2022-10-31T07:57:22;12.73;;;5.70;;
19585;SDS011;9939;49.246;9.106;2022-10-31T07:59:51;11.23;;;5.70;;
19585;SDS011;9939;49.246;9.106;2022-10-31T08:02:18;10.83;;;5.70;;
19585;SDS011;9939;49.246;9.106;2022-10-31T08:17:52;10.53;;;5.23;;
19585;SDS011;9939;49.246;9.106;2022-10-31T08:20:22;8.63;;;4.43;;
19585;SDS011;9939;49.246;9.106;2022-10-31T08:22:54;9.57;;;4.87;;
19585;SDS011;9939;49.246;9.106;2022-10-31T08:25:22;14.57;;;5.17;;
19585;SDS011;9939;49.246;9.106;2022-10-31T08:27:54;8.65;;;4.80;;
19585;SDS011;9939;49.246;9.106;2022-10-31T08:30:22;11.23;;;4.80;;
19585;SDS011;9939;49.246;9.106;2022-10-31T08:59:02;11.20;;;5.67;;
19585;SDS011;9939;49.246;9.106;2022-10-31T09:02:01;12.00;;;5.70;;
19585;SDS011;9939;49.246;9.106;2022-10-31T09:12:10;12.60;;;7.20;;
19585;SDS011;9939;49.246;9.106;2022-10-31T09:14:55;16.00;;;6.80;;
19585;SDS011;9939;49.246;9.106;2022-10-31T09:17:27;11.43;;;6.63;;
19585;SDS011;9939;49.246;9.106;2022-10-31T09:20:24;17.57;;;7.23;;
19585;SDS011;9939;49.246;9.106;2022-10-31T09:22:58;13.05;;;6.70;;
19585;SDS011;9939;49.246;9.106;2022-10-31T09:28:16;17.33;;;8.33;;
19585;SDS011;9939;49.246;9.106;2022-10-31T09:30:46;16.43;;;7.83;;
19585;SDS011;9939;49.246;9.106;2022-10-31T11:37:32;18.47;;;9.00;;
19585;SDS011;9939;49.246;9.106;2022-10-31T11:40:03;15.10;;;8.17;;
19585;SDS011;9939;49.246;9.106;2022-10-31T11:42:38;15.20;;;8.63;;
19585;SDS011;9939;49.246;9.106;2022-10-31T11:45:17;14.30;;;8.30;;
19585;SDS011;9939;49.246;9.106;2022-10-31T11:47:54;15.50;;;8.63;;
19585;SDS011;9939;49.246;9.106;2022-10-31T11:50:38;15.67;;;7.90;;
19585;SDS011;9939;49.246;9.106;2022-10-31T11:53:14;16.70;;;8.87;;
19585;SDS011;9939;49.246;9.106;2022-10-31T11:55:44;15.97;;;8.10;;
19585;SDS011;9939;49.246;9.106;2022-10-31T11:58:23;15.40;;;8.17;;
19585;SDS011;9939;49.246;9.106;2022-10-31T12:00:53;16.10;;;8.57;;
19585;SDS011;9939;49.246;9.106;2022-10-31T12:05:54;18.00;;;8.37;;
19585;SDS011;9939;49.246;9.106;2022-10-31T12:08:44;18.10;;;9.57;;
19585;SDS011;9939;49.246;9.106;2022-10-31T12:22:06;14.67;;;7.37;;
19585;SDS011;9939;49.246;9.106;2022-10-31T12:24:56;16.53;;;7.77;;
19585;SDS011;9939;49.246;9.106;2022-10-31T12:30:19;12.63;;;7.63;;
19585;SDS011;9939;49.246;9.106;2022-10-31T12:49:12;13.93;;;6.97;;
19585;SDS011;9939;49.246;9.106;2022-10-31T12:57:23;17.00;;;7.73;;
19585;SDS011;9939;49.246;9.106;2022-10-31T13:00:00;14.70;;;7.80;;
19585;SDS011;9939;49.246;9.106;2022-10-31T13:08:04;16.10;;;7.70;;
19585;SDS011;9939;49.246;9.106;2022-10-31T13:10:42;20.37;;;8.17;;
19585;SDS011;9939;49.246;9.106;2022-10-31T13:13:26;15.90;;;7.90;;
19585;SDS011;9939;49.246;9.106;2022-10-31T13:16:04;18.53;;;7.93;;
19585;SDS011;9939;49.246;9.106;2022-10-31T13:18:57;15.80;;;6.87;;
19585;SDS011;9939;49.246;9.106;2022-10-31T13:21:39;15.73;;;8.10;;
19585;SDS011;9939;49.246;9.106;2022-10-31T13:24:14;19.77;;;7.73;;
19585;SDS011;9939;49.246;9.106;2022-10-31T13:26:47;15.40;;;6.90;;
19585;SDS011;9939;49.246;9.106;2022-10-31T13:32:06;17.60;;;7.03;;
19585;SDS011;9939;49.246;9.106;2022-10-31T13:34:38;16.47;;;6.33;;
19585;SDS011;9939;49.246;9.106;2022-10-31T13:45:18;16.17;;;7.20;;
19585;SDS011;9939;49.246;9.106;2022-10-31T13:50:32;13.07;;;6.93;;
19585;SDS011;9939;49.246;9.106;2022-10-31T13:55:39;16.30;;;7.90;;
19585;SDS011;9939;49.246;9.106;2022-10-31T13:58:19;13.13;;;7.50;;
19585;SDS011;9939;49.246;9.106;2022-10-31T14:00:57;16.03;;;7.80;;
19585;SDS011;9939;49.246;9.106;2022-10-31T14:03:38;18.83;;;8.10;;
19585;SDS011;9939;49.246;9.106;2022-10-31T14:06:43;17.67;;;8.13;;
19585;SDS011;9939;49.246;9.106;2022-10-31T14:09:29;21.50;;;8.90;;
19585;SDS011;9939;49.246;9.106;2022-10-31T14:12:10;20.07;;;8.40;;
19585;SDS011;9939;49.246;9.106;2022-10-31T14:14:52;17.77;;;8.00;;
19585;SDS011;9939;49.246;9.106;2022-10-31T14:17:46;20.43;;;7.30;;
19585;SDS011;9939;49.246;9.106;2022-10-31T14:22:40;14.53;;;6.73;;
19585;SDS011;9939;49.246;9.106;2022-10-31T14:25:28;13.33;;;7.10;;
19585;SDS011;9939;49.246;9.106;2022-10-31T14:28:17;14.57;;;7.00;;
19585;SDS011;9939;49.246;9.106;2022-10-31T14:30:58;15.47;;;6.10;;
19585;SDS011;9939;49.246;9.106;2022-10-31T14:33:26;13.33;;;5.50;;
19585;SDS011;9939;49.246;9.106;2022-10-31T14:36:12;15.70;;;5.70;;
19585;SDS011;9939;49.246;9.106;2022-10-31T14:44:21;14.83;;;6.53;;
19585;SDS011;9939;49.246;9.106;2022-10-31T14:47:21;11.43;;;5.77;;
19585;SDS011;9939;49.246;9.106;2022-10-31T14:52:43;12.43;;;5.60;;
19585;SDS011;9939;49.246;9.106;2022-10-31T14:55:15;13.87;;;5.57;;
19585;SDS011;9939;49.246;9.106;2022-10-31T14:57:47;14.43;;;5.97;;
19585;SDS011;9939;49.246;9.106;2022-10-31T15:00:19;14.30;;;5.77;;
19585;SDS011;9939;49.246;9.106;2022-10-31T15:05:31;13.83;;;6.40;;
19585;SDS011;9939;49.246;9.106;2022-10-31T15:08:00;12.53;;;5.53;;
19585;SDS011;9939;49.246;9.106;2022-10-31T15:10:29;15.13;;;4.97;;
19585;SDS011;9939;49.246;9.106;2022-10-31T15:13:15;18.33;;;6.50;;
19585;SDS011;9939;49.246;9.106;2022-10-31T15:15:45;12.17;;;5.70;;
19585;SDS011;9939;49.246;9.106;2022-10-31T15:20:49;14.40;;;6.30;;
19585;SDS011;9939;49.246;9.106;2022-10-31T15:23:27;15.00;;;5.30;;
19585;SDS011;9939;49.246;9.106;2022-10-31T15:26:00;13.80;;;6.03;;
19585;SDS011;9939;49.246;9.106;2022-10-31T15:28:28;14.73;;;7.23;;
19585;SDS011;9939;49.246;9.106;2022-10-31T15:30:58;15.53;;;7.43;;
19585;SDS011;9939;49.246;9.106;2022-10-31T15:33:28;14.27;;;6.53;;
19585;SDS011;9939;49.246;9.106;2022-10-31T15:36:04;15.17;;;6.27;;
19585;SDS011;9939;49.246;9.106;2022-10-31T15:38:32;17.40;;;7.17;;
19585;SDS011;9939;49.246;9.106;2022-10-31T15:41:04;12.73;;;7.23;;
19585;SDS011;9939;49.246;9.106;2022-10-31T15:43:45;20.27;;;7.30;;
19585;SDS011;9939;49.246;9.106;2022-10-31T15:46:13;14.83;;;6.83;;
19585;SDS011;9939;49.246;9.106;2022-10-31T15:48:43;17.20;;;6.90;;
19585;SDS011;9939;49.246;9.106;2022-10-31T15:51:12;15.10;;;6.63;;
19585;SDS011;9939;49.246;9.106;2022-10-31T15:56:13;16.27;;;8.60;;
19585;SDS011;9939;49.246;9.106;2022-10-31T15:58:51;13.40;;;7.63;;
19585;SDS011;9939;49.246;9.106;2022-10-31T16:03:58;23.17;;;13.40;;
19585;SDS011;9939;49.246;9.106;2022-10-31T16:06:29;41.60;;;22.23;;
19585;SDS011;9939;49.246;9.106;2022-10-31T16:08:58;51.17;;;29.63;;
19585;SDS011;9939;49.246;9.106;2022-10-31T16:11:34;43.90;;;25.00;;
19585;SDS011;9939;49.246;9.106;2022-10-31T16:14:13;17.53;;;8.37;;
19585;SDS011;9939;49.246;9.106;2022-10-31T16:16:51;14.40;;;7.90;;
19585;SDS011;9939;49.246;9.106;2022-10-31T16:19:21;14.80;;;6.80;;
19585;SDS011;9939;49.246;9.106;2022-10-31T16:21:51;14.80;;;6.63;;
19585;SDS011;9939;49.246;9.106;2022-10-31T16:26:55;13.53;;;6.27;;
19585;SDS011;9939;49.246;9.106;2022-10-31T16:29:34;9.83;;;5.53;;
19585;SDS011;9939;49.246;9.106;2022-10-31T16:35:32;12.87;;;6.47;;
19585;SDS011;9939;49.246;9.106;2022-10-31T16:38:01;13.70;;;7.13;;
19585;SDS011;9939;49.246;9.106;2022-10-31T16:40:28;18.33;;;6.90;;
19585;SDS011;9939;49.246;9.106;2022-10-31T16:42:57;14.30;;;7.73;;
19585;SDS011;9939;49.246;9.106;2022-10-31T16:45:28;26.47;;;10.43;;
19585;SDS011;9939;49.246;9.106;2022-10-31T16:48:16;26.53;;;12.93;;
19585;SDS011;9939;49.246;9.106;2022-10-31T16:50:49;18.73;;;10.30;;
19585;SDS011;9939;49.246;9.106;2022-10-31T16:53:18;22.30;;;13.90;;
19585;SDS011;9939;49.246;9.106;2022-10-31T16:58:39;26.77;;;13.03;;
19585;SDS011;9939;49.246;9.106;2022-10-31T17:01:04;24.33;;;13.03;;
19585;SDS011;9939;49.246;9.106;2022-10-31T17:03:33;28.20;;;16.33;;
19585;SDS011;9939;49.246;9.106;2022-10-31T17:06:01;24.83;;;16.93;;
19585;SDS011;9939;49.246;9.106;2022-10-31T17:08:28;28.63;;;16.83;;
19585;SDS011;9939;49.246;9.106;2022-10-31T17:10:56;19.63;;;12.90;;
19585;SDS011;9939;49.246;9.106;2022-10-31T17:13:26;25.30;;;13.60;;
19585;SDS011;9939;49.246;9.106;2022-10-31T17:15:56;26.63;;;13.77;;
19585;SDS011;9939;49.246;9.106;2022-10-31T17:18:25;25.13;;;13.80;;
19585;SDS011;9939;49.246;9.106;2022-10-31T17:20:57;22.60;;;13.70;;
19585;SDS011;9939;49.246;9.106;2022-10-31T17:23:25;18.67;;;11.97;;
19585;SDS011;9939;49.246;9.106;2022-10-31T17:25:53;23.97;;;11.17;;
19585;SDS011;9939;49.246;9.106;2022-10-31T17:28:21;20.20;;;11.00;;
19585;SDS011;9939;49.246;9.106;2022-10-31T17:30:48;29.43;;;18.83;;
19585;SDS011;9939;49.246;9.106;2022-10-31T17:33:15;26.23;;;16.80;;
19585;SDS011;9939;49.246;9.106;2022-10-31T17:35:43;34.30;;;18.03;;
19585;SDS011;9939;49.246;9.106;2022-10-31T17:38:10;26.40;;;16.10;;
19585;SDS011;9939;49.246;9.106;2022-10-31T17:40:38;25.03;;;12.73;;
19585;SDS011;9939;49.246;9.106;2022-10-31T17:43:09;28.07;;;14.17;;
19585;SDS011;9939;49.246;9.106;2022-10-31T17:45:38;21.87;;;13.90;;
19585;SDS011;9939;49.246;9.106;2022-10-31T17:48:06;36.90;;;18.50;;
19585;SDS011;9939;49.246;9.106;2022-10-31T17:50:37;29.53;;;16.90;;
19585;SDS011;9939;49.246;9.106;2022-10-31T17:53:05;26.27;;;16.47;;
19585;SDS011;9939;49.246;9.106;2022-10-31T17:55:32;33.63;;;19.23;;
19585;SDS011;9939;49.246;9.106;2022-10-31T17:58:03;31.37;;;17.77;;
19585;SDS011;9939;49.246;9.106;2022-10-31T18:00:30;28.63;;;17.10;;
19585;SDS011;9939;49.246;9.106;2022-10-31T18:02:57;34.70;;;20.23;;
19585;SDS011;9939;49.246;9.106;2022-10-31T18:05:25;29.67;;;19.97;;
19585;SDS011;9939;49.246;9.106;2022-10-31T18:07:52;29.70;;;19.17;;
19585;SDS011;9939;49.246;9.106;2022-10-31T18:10:19;34.07;;;19.87;;
19585;SDS011;9939;49.246;9.106;2022-10-31T18:12:46;27.53;;;17.80;;
19585;SDS011;9939;49.246;9.106;2022-10-31T18:15:14;29.27;;;18.07;;
19585;SDS011;9939;49.246;9.106;2022-10-31T18:17:42;27.73;;;16.33;;
19585;SDS011;9939;49.246;9.106;2022-10-31T18:20:09;30.87;;;17.83;;
19585;SDS011;9939;49.246;9.106;2022-10-31T18:22:36;32.83;;;19.20;;
19585;SDS011;9939;49.246;9.106;2022-10-31T18:25:03;30.87;;;18.23;;
19585;SDS011;9939;49.246;9.106;2022-10-31T18:27:31;33.00;;;18.80;;
19585;SDS011;9939;49.246;9.106;2022-10-31T18:29:58;29.67;;;16.03;;
19585;SDS011;9939;49.246;9.106;2022-10-31T18:32:25;25.20;;;15.00;;
19585;SDS011;9939;49.246;9.106;2022-10-31T18:34:52;29.37;;;16.27;;
19585;SDS011;9939;49.246;9.106;2022-10-31T18:37:19;35.53;;;17.83;;
19585;SDS011;9939;49.246;9.106;2022-10-31T18:39:46;33.67;;;19.47;;
19585;SDS011;9939;49.246;9.106;2022-10-31T18:42:13;31.43;;;18.50;;
19585;SDS011;9939;49.246;9.106;2022-10-31T18:44:40;34.30;;;19.63;;
19585;SDS011;9939;49.246;9.106;2022-10-31T18:47:07;34.10;;;20.67;;
19585;SDS011;9939;49.246;9.106;2022-10-31T18:49:34;30.60;;;17.83;;
19585;SDS011;9939;49.246;9.106;2022-10-31T18:52:01;31.90;;;16.73;;
19585;SDS011;9939;49.246;9.106;2022-10-31T18:54:29;38.63;;;20.40;;
19585;SDS011;9939;49.246;9.106;2022-10-31T18:56:56;35.13;;;20.70;;
19585;SDS011;9939;49.246;9.106;2022-10-31T18:59:24;47.00;;;24.40;;
19585;SDS011;9939;49.246;9.106;2022-10-31T19:01:51;36.37;;;20.83;;
19585;SDS011;9939;49.246;9.106;2022-10-31T19:04:18;29.90;;;17.10;;
19585;SDS011;9939;49.246;9.106;2022-10-31T19:06:45;29.10;;;16.13;;
19585;SDS011;9939;49.246;9.106;2022-10-31T19:09:12;26.20;;;15.97;;
19585;SDS011;9939;49.246;9.106;2022-10-31T19:11:39;26.93;;;16.37;;
19585;SDS011;9939;49.246;9.106;2022-10-31T19:14:06;29.60;;;16.73;;
19585;SDS011;9939;49.246;9.106;2022-10-31T19:16:34;28.67;;;16.80;;
19585;SDS011;9939;49.246;9.106;2022-10-31T19:19:01;33.07;;;16.63;;
19585;SDS011;9939;49.246;9.106;2022-10-31T19:21:28;32.57;;;16.80;;
19585;SDS011;9939;49.246;9.106;2022-10-31T19:23:56;34.40;;;19.37;;
19585;SDS011;9939;49.246;9.106;2022-10-31T19:26:25;31.07;;;16.23;;
19585;SDS011;9939;49.246;9.106;2022-10-31T19:28:53;35.10;;;17.83;;
19585;SDS011;9939;49.246;9.106;2022-10-31T19:31:21;33.60;;;16.60;;
19585;SDS011;9939;49.246;9.106;2022-10-31T19:33:49;29.30;;;15.67;;
19585;SDS011;9939;49.246;9.106;2022-10-31T19:36:17;30.53;;;16.20;;
19585;SDS011;9939;49.246;9.106;2022-10-31T19:38:46;33.00;;;19.67;;
19585;SDS011;9939;49.246;9.106;2022-10-31T19:41:21;37.50;;;20.50;;
19585;SDS011;9939;49.246;9.106;2022-10-31T19:43:51;44.70;;;24.97;;
19585;SDS011;9939;49.246;9.106;2022-10-31T19:46:19;39.90;;;22.30;;
19585;SDS011;9939;49.246;9.106;2022-10-31T19:49:08;38.47;;;22.23;;
19585;SDS011;9939;49.246;9.106;2022-10-31T19:51:35;36.10;;;21.57;;
19585;SDS011;9939;49.246;9.106;2022-10-31T19:54:02;37.30;;;23.27;;
19585;SDS011;9939;49.246;9.106;2022-10-31T19:56:30;33.87;;;19.80;;
19585;SDS011;9939;49.246;9.106;2022-10-31T19:58:57;33.47;;;19.97;;
19585;SDS011;9939;49.246;9.106;2022-10-31T20:01:28;33.07;;;19.30;;
19585;SDS011;9939;49.246;9.106;2022-10-31T20:03:55;31.70;;;17.63;;
19585;SDS011;9939;49.246;9.106;2022-10-31T20:08:52;31.57;;;19.50;;
19585;SDS011;9939;49.246;9.106;2022-10-31T20:11:22;32.93;;;19.23;;
19585;SDS011;9939;49.246;9.106;2022-10-31T20:13:50;34.90;;;16.63;;
19585;SDS011;9939;49.246;9.106;2022-10-31T20:16:17;30.83;;;15.20;;
19585;SDS011;9939;49.246;9.106;2022-10-31T20:18:45;26.17;;;15.10;;
19585;SDS011;9939;49.246;9.106;2022-10-31T20:21:13;27.80;;;15.80;;